createdAt,value
2019-03-08T00:01:21.367Z,8.50
2019-03-08T00:03:49.636Z,8.40
2019-03-08T00:06:17.880Z,8.40
2019-03-08T00:09:05.847Z,8.40
2019-03-08T00:11:34.077Z,8.40
2019-03-08T00:14:02.388Z,8.30
2019-03-08T00:16:30.627Z,8.40
2019-03-08T00:18:58.891Z,8.30
2019-03-08T00:21:27.122Z,8.30
2019-03-08T00:23:55.367Z,8.30
2019-03-08T00:26:23.690Z,8.30
2019-03-08T00:28:51.957Z,8.40
2019-03-08T00:31:20.189Z,8.40
2019-03-08T00:33:48.458Z,8.40
2019-03-08T00:36:16.780Z,8.30
2019-03-08T00:38:45.043Z,8.30
2019-03-08T00:41:13.267Z,8.40
2019-03-08T00:43:41.510Z,8.40
2019-03-08T00:46:09.768Z,8.40
2019-03-08T00:48:38.028Z,8.50
2019-03-08T00:51:06.284Z,8.50
2019-03-08T00:53:34.521Z,8.60
2019-03-08T00:56:02.852Z,8.60
2019-03-08T00:58:31.103Z,8.60
2019-03-08T01:00:59.335Z,8.60
2019-03-08T01:03:27.617Z,8.60
2019-03-08T01:05:56.120Z,8.60
2019-03-08T01:08:24.459Z,8.60
2019-03-08T01:10:52.700Z,8.60
2019-03-08T01:13:21.031Z,8.60
2019-03-08T01:15:49.255Z,8.60
2019-03-08T01:18:17.515Z,8.60
2019-03-08T01:20:46.056Z,8.60
2019-03-08T01:23:14.291Z,8.50
2019-03-08T01:25:42.530Z,8.50
2019-03-08T01:28:11.923Z,8.40
2019-03-08T01:30:40.996Z,8.40
2019-03-08T01:33:09.328Z,8.40
2019-03-08T01:35:37.837Z,8.40
2019-03-08T01:38:06.059Z,8.30
2019-03-08T01:40:34.324Z,8.30
2019-03-08T01:43:02.630Z,8.30
2019-03-08T01:45:30.890Z,8.30
2019-03-08T01:47:59.178Z,8.30
2019-03-08T01:50:32.591Z,8.30
2019-03-08T01:55:47.502Z,8.30
2019-03-08T01:58:15.726Z,8.20
2019-03-08T02:00:44.270Z,8.10
2019-03-08T02:03:12.496Z,8.10
2019-03-08T02:05:40.756Z,8.00
2019-03-08T02:08:09.192Z,8.00
2019-03-08T02:10:37.438Z,8.10
2019-03-08T02:13:05.664Z,8.00
2019-03-08T02:15:34.304Z,8.00
2019-03-08T02:18:02.532Z,7.90
2019-03-08T02:20:30.795Z,7.80
2019-03-08T02:22:59.022Z,7.80
2019-03-08T02:25:27.351Z,7.80
2019-03-08T02:27:55.580Z,7.80
2019-03-08T02:30:24.204Z,7.80
2019-03-08T02:32:52.449Z,7.80
2019-03-08T02:35:20.894Z,7.80
2019-03-08T02:37:49.151Z,7.80
2019-03-08T02:40:34.299Z,7.70
2019-03-08T02:43:04.503Z,7.70
2019-03-08T02:45:32.766Z,7.70
2019-03-08T02:48:01.019Z,7.70
2019-03-08T02:50:29.271Z,7.70
2019-03-08T02:52:57.538Z,7.70
2019-03-08T02:55:25.773Z,7.70
2019-03-08T02:57:54.083Z,7.70
2019-03-08T03:00:22.353Z,7.70
2019-03-08T03:02:50.584Z,7.60
2019-03-08T03:05:18.850Z,7.60
2019-03-08T03:07:47.087Z,7.60
2019-03-08T03:10:15.335Z,7.60
2019-03-08T03:12:43.572Z,7.60
2019-03-08T03:15:13.171Z,7.60
2019-03-08T03:17:41.399Z,7.60
2019-03-08T03:20:11.699Z,7.60
2019-03-08T03:22:39.926Z,7.60
2019-03-08T03:25:10.328Z,7.60
2019-03-08T03:27:38.601Z,7.60
2019-03-08T03:30:19.902Z,7.60
2019-03-08T03:32:48.239Z,7.60
2019-03-08T03:35:16.466Z,7.60
2019-03-08T03:37:45.101Z,7.50
2019-03-08T03:40:15.630Z,7.50
2019-03-08T03:42:43.893Z,7.40
2019-03-08T03:45:13.556Z,7.30
2019-03-08T03:47:41.828Z,7.30
2019-03-08T03:50:13.614Z,7.20
2019-03-08T03:52:42.145Z,7.20
2019-03-08T03:55:15.016Z,7.20
2019-03-08T03:57:43.283Z,7.10
2019-03-08T04:00:22.510Z,7.10
2019-03-08T04:02:50.743Z,7.00
2019-03-08T04:05:19.072Z,6.90
2019-03-08T04:07:47.310Z,6.90
2019-03-08T04:10:16.411Z,6.80
2019-03-08T04:12:44.776Z,6.80
2019-03-08T04:15:21.162Z,6.70
2019-03-08T04:17:49.540Z,6.70
2019-03-08T04:20:20.004Z,6.70
2019-03-08T04:22:48.266Z,6.70
2019-03-08T04:25:16.603Z,6.70
2019-03-08T04:27:44.876Z,6.70
2019-03-08T04:30:20.915Z,6.70
2019-03-08T04:32:49.221Z,6.80
2019-03-08T04:35:17.577Z,6.70
2019-03-08T04:37:45.826Z,6.70
2019-03-08T04:40:14.444Z,6.60
2019-03-08T04:42:42.680Z,6.60
2019-03-08T04:45:12.722Z,6.60
2019-03-08T04:47:40.981Z,6.60
2019-03-08T04:50:11.035Z,6.70
2019-03-08T04:52:39.296Z,6.60
2019-03-08T04:55:16.924Z,6.70
2019-03-08T04:57:45.939Z,6.80
2019-03-08T05:00:15.507Z,6.90
2019-03-08T05:02:43.756Z,6.90
2019-03-08T05:05:12.010Z,6.90
2019-03-08T05:07:40.269Z,6.90
2019-03-08T05:10:13.923Z,7.00
2019-03-08T05:12:42.319Z,7.00
2019-03-08T05:15:10.571Z,7.00
2019-03-08T05:17:38.816Z,7.00
2019-03-08T05:20:08.969Z,7.10
2019-03-08T05:22:37.196Z,7.10
2019-03-08T05:25:09.671Z,7.10
2019-03-08T05:27:37.920Z,7.00
2019-03-08T05:30:09.691Z,7.00
2019-03-08T05:32:37.965Z,7.10
2019-03-08T05:35:07.752Z,7.10
2019-03-08T05:37:35.983Z,7.10
2019-03-08T05:41:12.072Z,7.00
2019-03-08T05:43:41.184Z,7.00
2019-03-08T05:46:10.324Z,7.00
2019-03-08T05:48:39.465Z,7.00
2019-03-08T05:51:08.576Z,6.90
2019-03-08T05:53:37.714Z,6.90
2019-03-08T05:56:06.873Z,6.90
2019-03-08T05:58:35.993Z,6.90
2019-03-08T06:01:05.146Z,6.80
2019-03-08T06:03:34.264Z,6.80
2019-03-08T06:06:03.394Z,6.70
2019-03-08T06:08:32.503Z,6.70
2019-03-08T06:11:01.923Z,6.70
2019-03-08T06:13:31.069Z,6.70
2019-03-08T06:16:00.208Z,6.70
2019-03-08T06:18:29.327Z,6.70
2019-03-08T06:20:58.476Z,6.70
2019-03-08T06:23:27.611Z,6.60
2019-03-08T06:26:03.024Z,6.50
2019-03-08T06:28:32.215Z,6.40
2019-03-08T06:31:01.323Z,6.40
2019-03-08T06:33:30.543Z,6.30
2019-03-08T06:35:59.687Z,6.20
2019-03-08T06:38:28.816Z,6.10
2019-03-08T06:40:57.963Z,5.90
2019-03-08T06:43:27.084Z,5.80
2019-03-08T06:45:56.225Z,5.80
2019-03-08T06:48:25.330Z,5.80
2019-03-08T06:50:54.470Z,5.80
2019-03-08T06:53:23.592Z,5.80
2019-03-08T06:55:52.788Z,5.80
2019-03-08T06:58:23.576Z,5.80
2019-03-08T07:00:54.332Z,5.90
2019-03-08T07:03:22.822Z,6.00
2019-03-08T07:05:51.925Z,6.00
2019-03-08T07:08:21.220Z,6.00
2019-03-08T07:10:50.410Z,6.10
2019-03-08T07:13:19.561Z,6.10
2019-03-08T07:15:48.694Z,6.20
2019-03-08T07:18:17.826Z,6.20
2019-03-08T07:20:48.752Z,6.30
2019-03-08T07:23:38.028Z,6.30
2019-03-08T07:26:14.805Z,6.40
2019-03-08T07:28:57.621Z,6.40
2019-03-08T07:31:37.455Z,6.30
2019-03-08T07:34:13.868Z,6.40
2019-03-08T07:37:01.235Z,6.40
2019-03-08T07:39:44.416Z,6.40
2019-03-08T07:42:15.210Z,6.50
2019-03-08T07:44:54.613Z,6.60
2019-03-08T07:47:40.557Z,6.60
2019-03-08T07:50:23.405Z,6.70
2019-03-08T07:53:11.494Z,6.80
2019-03-08T07:59:05.630Z,7.10
2019-03-08T08:01:37.475Z,7.40
2019-03-08T08:04:09.326Z,7.60
2019-03-08T08:06:39.503Z,7.80
2019-03-08T08:09:14.507Z,8.00
2019-03-08T08:11:48.228Z,8.20
2019-03-08T08:14:18.992Z,8.50
2019-03-08T08:17:01.274Z,8.60
2019-03-08T08:19:37.947Z,8.50
2019-03-08T08:22:12.302Z,8.60
2019-03-08T08:24:49.175Z,8.60
2019-03-08T08:27:25.675Z,8.70
2019-03-08T08:30:11.916Z,8.70
2019-03-08T08:32:51.755Z,8.60
2019-03-08T08:35:22.546Z,8.60
2019-03-08T08:38:01.630Z,8.60
2019-03-08T08:40:44.276Z,8.70
2019-03-08T08:43:15.338Z,8.80
2019-03-08T08:45:45.504Z,8.90
2019-03-08T08:48:16.210Z,8.90
2019-03-08T08:50:46.309Z,9.00
2019-03-08T08:53:19.872Z,9.00
2019-03-08T08:55:53.868Z,9.10
2019-03-08T08:58:41.198Z,9.10
2019-03-08T09:01:28.308Z,9.10
2019-03-08T09:03:59.105Z,9.20
2019-03-08T09:06:29.189Z,9.30
2019-03-08T09:09:05.841Z,9.20
2019-03-08T09:11:45.951Z,9.30
2019-03-08T09:14:24.061Z,9.40
2019-03-08T09:17:12.928Z,9.70
2019-03-08T09:19:49.391Z,9.70
2019-03-08T09:22:20.192Z,9.80
2019-03-08T09:24:50.285Z,10.10
2019-03-08T09:27:27.001Z,10.30
2019-03-08T09:30:02.020Z,10.10
2019-03-08T09:32:34.544Z,10.40
2019-03-08T09:35:04.810Z,10.60
2019-03-08T09:37:53.456Z,10.80
2019-03-08T09:40:40.887Z,11.20
2019-03-08T09:43:14.484Z,11.60
2019-03-08T09:45:57.086Z,11.50
2019-03-08T09:48:48.687Z,11.10
2019-03-08T09:51:29.334Z,10.90
2019-03-08T09:54:12.203Z,10.90
2019-03-08T09:56:48.715Z,12.00
2019-03-08T09:59:19.578Z,13.10
2019-03-08T10:01:56.075Z,14.10
2019-03-08T10:04:43.653Z,13.40
2019-03-08T10:07:29.722Z,13.40
2019-03-08T10:10:00.487Z,13.40
2019-03-08T10:12:49.399Z,13.70
2019-03-08T10:15:32.086Z,13.70
2019-03-08T10:18:21.272Z,14.20
2019-03-08T10:20:58.012Z,14.40
2019-03-08T10:23:31.752Z,14.00
2019-03-08T10:26:02.574Z,14.70
2019-03-08T10:28:33.377Z,14.70
2019-03-08T10:31:04.153Z,14.80
2019-03-08T10:33:46.705Z,15.30
2019-03-08T10:36:19.275Z,16.30
2019-03-08T10:38:56.085Z,16.30
2019-03-08T10:41:26.932Z,15.80
2019-03-08T10:43:57.726Z,16.10
2019-03-08T10:46:31.260Z,16.40
2019-03-08T10:49:14.547Z,16.20
2019-03-08T10:51:48.575Z,16.00
2019-03-08T10:54:22.031Z,15.50
2019-03-08T10:56:58.643Z,14.50
2019-03-08T10:59:31.360Z,13.90
2019-03-08T11:02:04.860Z,14.30
2019-03-08T11:04:52.419Z,14.40
2019-03-08T11:07:32.188Z,15.30
2019-03-08T11:10:02.988Z,15.70
2019-03-08T11:12:48.841Z,15.70
2019-03-08T11:15:31.905Z,16.40
2019-03-08T11:18:18.200Z,17.40
2019-03-08T11:20:51.710Z,16.70
2019-03-08T11:23:23.760Z,16.10
2019-03-08T11:26:10.824Z,16.60
2019-03-08T11:28:45.376Z,15.80
2019-03-08T11:31:34.787Z,14.80
2019-03-08T11:34:17.235Z,14.10
2019-03-08T11:36:53.954Z,12.60
2019-03-08T11:39:30.562Z,12.10
2019-03-08T11:45:17.968Z,11.80
2019-03-08T11:47:51.686Z,12.00
2019-03-08T11:50:34.359Z,11.60
2019-03-08T11:53:05.130Z,11.50
2019-03-08T11:55:47.295Z,11.50
2019-03-08T11:58:27.158Z,11.30
2019-03-08T12:01:20.090Z,11.30
2019-03-08T12:04:07.195Z,11.30
2019-03-08T12:06:44.196Z,11.50
2019-03-08T12:09:20.735Z,11.20
2019-03-08T12:12:05.900Z,11.00
2019-03-08T12:14:36.996Z,11.50
2019-03-08T12:17:17.922Z,12.60
2019-03-08T12:19:54.859Z,13.60
2019-03-08T12:22:34.677Z,15.20
2019-03-08T12:25:07.187Z,15.60
2019-03-08T12:27:44.003Z,15.80
2019-03-08T12:30:32.766Z,15.60
2019-03-08T12:33:03.526Z,16.80
2019-03-08T12:35:37.187Z,17.90
2019-03-08T12:38:07.992Z,16.40
2019-03-08T12:40:41.723Z,15.50
2019-03-08T12:43:27.792Z,14.80
2019-03-08T12:46:04.358Z,15.20
2019-03-08T12:48:47.103Z,15.30
2019-03-08T12:51:17.888Z,15.20
2019-03-08T12:54:03.776Z,14.90
2019-03-08T12:56:37.233Z,14.10
2019-03-08T12:59:17.089Z,14.50
2019-03-08T13:01:53.592Z,14.80
2019-03-08T13:04:27.061Z,15.40
2019-03-08T13:07:03.599Z,15.70
2019-03-08T13:09:37.427Z,15.50
2019-03-08T13:12:06.549Z,14.90
2019-03-08T13:14:35.705Z,14.50
2019-03-08T13:17:04.847Z,14.70
2019-03-08T13:19:34.363Z,14.00
2019-03-08T13:22:03.885Z,13.40
2019-03-08T13:24:33.051Z,13.20
2019-03-08T13:27:02.263Z,13.20
2019-03-08T13:29:31.388Z,13.00
2019-03-08T13:32:00.539Z,13.60
2019-03-08T13:36:19.742Z,14.90
2019-03-08T13:38:48.886Z,16.30
2019-03-08T13:41:18.017Z,16.70
2019-03-08T13:43:47.176Z,16.50
2019-03-08T13:46:16.280Z,17.00
2019-03-08T13:48:45.442Z,17.50
2019-03-08T13:51:14.560Z,18.10
2019-03-08T13:53:43.750Z,18.80
2019-03-08T13:56:13.214Z,19.80
2019-03-08T13:58:42.524Z,20.80
2019-03-08T14:01:11.646Z,19.80
2019-03-08T14:03:40.763Z,18.40
2019-03-08T14:06:09.896Z,17.00
2019-03-08T14:08:39.023Z,17.00
2019-03-08T14:11:09.208Z,16.70
2019-03-08T14:13:38.417Z,15.80
2019-03-08T14:16:07.558Z,16.00
2019-03-08T14:18:36.682Z,16.30
2019-03-08T14:21:05.829Z,16.30
2019-03-08T14:23:35.260Z,16.00
2019-03-08T14:26:05.837Z,15.60
2019-03-08T14:28:34.985Z,15.50
2019-03-08T14:31:08.906Z,14.40
2019-03-08T14:33:38.205Z,13.70
2019-03-08T14:36:07.549Z,13.50
2019-03-08T14:38:37.241Z,13.10
2019-03-08T14:41:13.903Z,13.10
2019-03-08T14:43:56.722Z,13.10
2019-03-08T14:46:27.884Z,13.20
2019-03-08T14:48:57.008Z,13.20
2019-03-08T14:51:26.159Z,13.10
2019-03-08T14:53:55.269Z,13.00
2019-03-08T14:56:24.417Z,12.90
2019-03-08T14:58:53.527Z,12.70
2019-03-08T15:01:22.668Z,12.50
2019-03-08T15:03:51.893Z,12.50
2019-03-08T15:06:21.045Z,12.60
2019-03-08T15:08:51.186Z,12.60
2019-03-08T15:11:23.533Z,12.70
2019-03-08T15:13:51.846Z,12.70
2019-03-08T15:16:20.989Z,12.70
2019-03-08T15:18:50.127Z,12.60
2019-03-08T15:21:33.291Z,12.30
2019-03-08T15:24:03.061Z,12.30
2019-03-08T15:26:33.184Z,12.10
2019-03-08T15:29:02.316Z,12.00
2019-03-08T15:31:31.477Z,11.90
2019-03-08T15:34:00.588Z,11.90
2019-03-08T15:36:29.740Z,11.90
2019-03-08T15:38:59.168Z,11.80
2019-03-08T15:41:28.404Z,11.90
2019-03-08T15:43:57.653Z,11.90
2019-03-08T15:46:26.916Z,11.80
2019-03-08T15:49:15.941Z,11.70
2019-03-08T15:51:45.060Z,11.60
2019-03-08T15:54:14.211Z,11.60
2019-03-08T15:56:43.369Z,11.50
2019-03-08T15:59:12.465Z,11.50
2019-03-08T16:01:41.622Z,11.40
2019-03-08T16:04:12.089Z,11.30
2019-03-08T16:06:43.937Z,11.20
2019-03-08T16:09:11.098Z,11.20
2019-03-08T16:11:39.679Z,11.20
2019-03-08T16:14:09.063Z,11.20
2019-03-08T16:16:37.683Z,11.20
2019-03-08T16:19:06.054Z,11.10
2019-03-08T16:21:34.531Z,11.00
2019-03-08T16:24:03.056Z,11.00
2019-03-08T16:26:31.429Z,11.00
2019-03-08T16:28:59.825Z,10.80
2019-03-08T16:31:41.783Z,10.80
2019-03-08T16:34:11.857Z,10.80
2019-03-08T16:36:48.048Z,10.70
2019-03-08T16:39:18.162Z,10.60
2019-03-08T16:42:04.903Z,10.50
2019-03-08T16:44:34.998Z,10.50
2019-03-08T16:47:04.995Z,10.50
2019-03-08T16:49:51.555Z,10.50
2019-03-08T16:52:24.337Z,10.40
2019-03-08T16:55:10.905Z,10.30
2019-03-08T16:57:43.945Z,10.20
2019-03-08T17:00:26.218Z,10.10
2019-03-08T17:02:56.248Z,10.00
2019-03-08T17:05:35.110Z,9.80
2019-03-08T17:08:08.083Z,9.70
2019-03-08T17:10:38.197Z,9.60
2019-03-08T17:13:11.643Z,9.60
2019-03-08T17:15:41.681Z,9.50
2019-03-08T17:18:20.656Z,9.50
2019-03-08T17:21:02.718Z,9.40
2019-03-08T17:23:38.929Z,9.30
2019-03-08T17:26:33.643Z,9.20
2019-03-08T17:29:13.523Z,9.10
2019-03-08T17:32:00.062Z,8.90
2019-03-08T17:34:42.345Z,8.70
2019-03-08T17:37:30.488Z,8.60
2019-03-08T17:40:06.562Z,8.40
2019-03-08T17:42:39.173Z,8.30
2019-03-08T17:45:13.137Z,8.20
2019-03-08T17:47:52.403Z,8.10
2019-03-08T17:50:25.635Z,8.00
2019-03-08T17:53:12.276Z,7.90
2019-03-08T17:55:57.356Z,7.80
2019-03-08T17:58:42.653Z,7.70
2019-03-08T18:01:18.379Z,7.60
2019-03-08T18:04:04.895Z,7.50
2019-03-08T18:06:51.169Z,7.50
2019-03-08T18:09:21.943Z,7.40
2019-03-08T18:11:54.691Z,7.20
2019-03-08T18:14:24.762Z,7.10
2019-03-08T18:16:54.782Z,7.00
2019-03-08T18:19:30.864Z,7.00
2019-03-08T18:22:00.887Z,6.90
2019-03-08T18:24:39.765Z,6.70
2019-03-08T18:27:12.521Z,6.60
2019-03-08T18:29:57.791Z,6.60
2019-03-08T18:32:37.163Z,6.60
2019-03-08T18:35:11.017Z,6.60
2019-03-08T18:37:44.295Z,6.60
2019-03-08T18:40:23.430Z,6.60
2019-03-08T18:42:56.422Z,6.50
2019-03-08T18:45:32.244Z,6.50
2019-03-08T18:48:17.348Z,6.40
2019-03-08T18:50:51.481Z,6.30
2019-03-08T18:54:12.914Z,6.40
2019-03-08T18:56:45.351Z,6.40
2019-03-08T19:01:47.167Z,6.40
2019-03-08T19:04:33.223Z,6.40
2019-03-08T19:07:13.625Z,6.40
2019-03-08T19:09:44.525Z,6.30
2019-03-08T19:12:29.777Z,6.30
2019-03-08T19:15:10.208Z,6.30
2019-03-08T19:17:43.915Z,6.30
2019-03-08T19:20:17.409Z,6.20
2019-03-08T19:22:51.118Z,6.20
2019-03-08T19:25:23.198Z,6.00
2019-03-08T19:27:56.995Z,5.90
2019-03-08T19:30:28.846Z,5.90
2019-03-08T19:33:05.319Z,5.90
2019-03-08T19:35:48.246Z,5.90
2019-03-08T19:38:50.248Z,5.90
2019-03-08T19:41:23.832Z,5.80
2019-03-08T19:44:09.595Z,5.70
2019-03-08T19:46:40.754Z,5.60
2019-03-08T19:49:13.955Z,5.70
2019-03-08T19:51:50.920Z,5.70
2019-03-08T19:54:24.644Z,5.60
2019-03-08T19:57:10.822Z,5.60
2019-03-08T19:59:47.657Z,5.50
2019-03-08T20:02:18.532Z,5.50
2019-03-08T20:04:49.670Z,5.60
2019-03-08T20:07:26.476Z,5.70
2019-03-08T20:09:57.305Z,5.60
2019-03-08T20:12:34.185Z,5.70
2019-03-08T20:15:08.816Z,5.70
2019-03-08T20:17:42.563Z,5.70
2019-03-08T20:20:14.711Z,5.60
2019-03-08T20:22:48.523Z,5.50
2019-03-08T20:25:35.604Z,5.50
2019-03-08T20:28:06.436Z,5.50
2019-03-08T20:30:51.886Z,5.40
2019-03-08T20:33:32.006Z,5.40
2019-03-08T20:36:14.906Z,5.50
2019-03-08T20:38:46.047Z,5.50
2019-03-08T20:41:31.733Z,5.60
2019-03-08T20:44:17.661Z,5.60
2019-03-08T20:47:05.003Z,5.60
2019-03-08T20:49:34.278Z,5.60
2019-03-08T20:52:03.421Z,5.60
2019-03-08T20:54:32.652Z,5.60
2019-03-08T20:57:01.826Z,5.60
2019-03-08T20:59:31.137Z,5.50
2019-03-08T21:02:01.349Z,5.60
2019-03-08T21:04:30.952Z,5.50
2019-03-08T21:07:01.353Z,5.60
2019-03-08T21:09:30.492Z,5.60
2019-03-08T21:11:59.674Z,5.60
2019-03-08T21:14:28.820Z,5.60
2019-03-08T21:16:57.938Z,5.60
2019-03-08T21:19:28.290Z,5.60
2019-03-08T21:21:57.466Z,5.60
2019-03-08T21:24:26.633Z,5.50
2019-03-08T21:26:55.763Z,5.60
2019-03-08T21:29:24.973Z,5.50
2019-03-08T21:31:54.120Z,5.40
2019-03-08T21:34:23.477Z,5.50
2019-03-08T21:36:52.682Z,5.50
2019-03-08T21:39:21.792Z,5.40
2019-03-08T21:41:51.007Z,5.40
2019-03-08T21:44:20.128Z,5.40
2019-03-08T21:46:49.540Z,5.50
2019-03-08T21:49:18.652Z,5.50
2019-03-08T21:51:47.870Z,5.50
2019-03-08T21:54:17.015Z,5.60
2019-03-08T21:56:58.670Z,5.60
2019-03-08T21:59:27.808Z,5.50
2019-03-08T22:01:56.928Z,5.50
2019-03-08T22:04:27.709Z,5.50
2019-03-08T22:06:56.829Z,5.50
2019-03-08T22:09:36.593Z,5.60
2019-03-08T22:12:05.697Z,5.60
2019-03-08T22:14:34.840Z,5.60
2019-03-08T22:17:03.948Z,5.70
2019-03-08T22:19:34.365Z,5.70
2019-03-08T22:22:03.589Z,5.70
2019-03-08T22:24:32.715Z,5.70
2019-03-08T22:27:01.858Z,5.70
2019-03-08T22:29:31.004Z,5.70
2019-03-08T22:32:00.158Z,5.70
2019-03-08T22:34:29.547Z,5.80
2019-03-08T22:36:58.706Z,5.80
2019-03-08T22:39:27.855Z,5.70
2019-03-08T22:41:56.967Z,5.70
2019-03-08T22:44:26.093Z,5.80
2019-03-08T22:46:55.326Z,5.80
2019-03-08T22:49:24.455Z,5.70
2019-03-08T22:51:53.566Z,5.70
2019-03-08T22:54:22.717Z,5.70
2019-03-08T22:56:51.859Z,5.80
2019-03-08T22:59:21.009Z,5.80
2019-03-08T23:01:51.800Z,5.80
2019-03-08T23:04:20.920Z,5.80
2019-03-08T23:06:50.051Z,5.70
2019-03-08T23:09:19.632Z,5.80
2019-03-08T23:11:49.236Z,5.80
2019-03-08T23:14:18.359Z,5.80
2019-03-08T23:16:47.476Z,5.70
2019-03-08T23:19:16.598Z,5.80
2019-03-08T23:21:45.734Z,5.80
2019-03-08T23:24:14.908Z,5.80
2019-03-08T23:26:48.751Z,5.80
2019-03-08T23:29:37.973Z,5.80
2019-03-08T23:32:08.727Z,5.90
2019-03-08T23:34:37.863Z,5.80
2019-03-08T23:37:06.976Z,5.80
2019-03-08T23:39:36.122Z,5.80
2019-03-08T23:42:05.236Z,5.80
2019-03-08T23:44:34.371Z,5.70
2019-03-08T23:47:03.663Z,5.70
2019-03-08T23:49:32.831Z,5.70
2019-03-08T23:52:02.005Z,5.70
2019-03-08T23:54:31.147Z,5.60
2019-03-08T23:57:00.258Z,5.50
2019-03-08T23:59:29.675Z,5.40
